Apple Valley, North Dakota
Current Conditions -  °F | °C
As of 8:52 AM on Thursday 23 Oct 2014 (Local Time) from KBIS Reporting Station
Clear Clear  
Wind Chill:   Ceiling: Unl
Heat Index:   Visibility: 10mi
Dew Point: -1°   Wind: 3mph
Humidity: 89%   Direction: 80°E
Pressure: 29.92"   Gusts: NA
Location:  46.8954°N, 100.519°W
Report Text: KBIS 231352Z 08003KT 10SM CLR 01/M01 A2992 RMK AO2 SLP143 T00111006
Loading
Personal Weather Stations






























Interactive Weather Map
Tropical Storm Tracking
New forecast layout! Learn more

10-Day Weather Forecast

Advertisements
Track Severe Weather on mobile